createdAt,value
2018-08-13T00:01:31.142Z,99.90
2018-08-13T00:04:00.038Z,99.90
2018-08-13T00:06:28.824Z,99.90
2018-08-13T00:08:57.583Z,99.90
2018-08-13T00:11:26.174Z,99.90
2018-08-13T00:13:54.854Z,99.90
2018-08-13T00:16:23.596Z,99.90
2018-08-13T00:18:52.244Z,99.90
2018-08-13T00:21:21.080Z,99.90
2018-08-13T00:23:49.569Z,99.90
2018-08-13T00:26:18.101Z,99.90
2018-08-13T00:28:46.659Z,99.90
2018-08-13T00:31:15.185Z,99.90
2018-08-13T00:33:43.723Z,99.90
2018-08-13T00:36:12.433Z,99.90
2018-08-13T00:38:40.960Z,99.90
2018-08-13T00:41:09.472Z,99.90
2018-08-13T00:43:38.067Z,99.90
2018-08-13T00:46:06.523Z,99.90
2018-08-13T00:48:35.538Z,99.90
2018-08-13T00:51:04.218Z,99.90
2018-08-13T00:53:32.754Z,99.90
2018-08-13T00:56:01.572Z,99.90
2018-08-13T00:58:30.197Z,99.90
2018-08-13T01:00:58.775Z,99.90
2018-08-13T01:03:27.423Z,99.90
2018-08-13T01:05:56.130Z,99.90
2018-08-13T01:08:24.782Z,99.90
2018-08-13T01:10:53.656Z,99.90
2018-08-13T01:13:22.422Z,99.90
2018-08-13T01:15:51.398Z,99.90
2018-08-13T01:18:20.019Z,99.90
2018-08-13T01:20:48.791Z,99.90
2018-08-13T01:23:17.655Z,99.90
2018-08-13T01:25:46.425Z,99.90
2018-08-13T01:28:15.241Z,99.90
2018-08-13T01:30:43.950Z,99.90
2018-08-13T01:33:12.931Z,99.90
2018-08-13T01:35:41.593Z,99.90
2018-08-13T01:38:10.204Z,99.90
2018-08-13T01:40:38.719Z,99.90
2018-08-13T01:43:07.315Z,99.90
2018-08-13T01:45:36.363Z,99.90
2018-08-13T01:48:07.050Z,99.90
2018-08-13T01:50:35.944Z,99.90
2018-08-13T01:53:05.347Z,99.90
2018-08-13T01:55:33.952Z,99.90
2018-08-13T01:58:02.891Z,99.90
2018-08-13T02:00:31.463Z,99.90
2018-08-13T02:03:00.121Z,99.90
2018-08-13T02:05:28.802Z,99.90
2018-08-13T02:07:57.373Z,99.90
2018-08-13T02:10:26.095Z,99.90
2018-08-13T02:12:54.720Z,99.90
2018-08-13T02:15:23.386Z,99.90
2018-08-13T02:17:52.003Z,99.90
2018-08-13T02:20:20.570Z,99.90
2018-08-13T02:22:49.140Z,99.90
2018-08-13T02:25:17.661Z,99.90
2018-08-13T02:27:46.309Z,99.90
2018-08-13T02:30:14.864Z,99.90
2018-08-13T02:32:43.624Z,99.90
2018-08-13T02:35:12.280Z,99.90
2018-08-13T02:37:40.871Z,99.90
2018-08-13T02:40:10.573Z,99.90
2018-08-13T02:42:40.138Z,99.90
2018-08-13T02:45:10.081Z,99.90
2018-08-13T02:47:38.899Z,99.90
2018-08-13T02:50:09.913Z,99.90
2018-08-13T02:52:38.710Z,99.90
2018-08-13T02:55:08.192Z,99.90
2018-08-13T02:57:36.800Z,99.90
2018-08-13T03:00:07.143Z,99.90
2018-08-13T03:02:35.930Z,99.90
2018-08-13T03:05:05.957Z,99.90
2018-08-13T03:07:34.903Z,99.90
2018-08-13T03:10:03.582Z,99.90
2018-08-13T03:12:32.416Z,99.90
2018-08-13T03:15:01.048Z,99.90
2018-08-13T03:17:32.208Z,99.90
2018-08-13T03:20:01.484Z,99.90
2018-08-13T03:22:30.917Z,99.90
2018-08-13T03:25:00.744Z,99.90
2018-08-13T03:27:29.704Z,99.90
2018-08-13T03:29:59.460Z,99.90
2018-08-13T03:32:28.168Z,99.90
2018-08-13T03:34:56.792Z,99.90
2018-08-13T03:37:25.423Z,99.90
2018-08-13T03:39:54.007Z,99.90
2018-08-13T03:42:22.568Z,99.90
2018-08-13T03:44:51.127Z,99.90
2018-08-13T03:47:19.841Z,99.90
2018-08-13T03:49:48.540Z,99.90
2018-08-13T03:52:19.356Z,99.90
2018-08-13T03:54:48.098Z,99.90
2018-08-13T03:57:16.697Z,99.90
2018-08-13T03:59:45.512Z,99.90
2018-08-13T04:02:14.188Z,99.90
2018-08-13T04:04:42.959Z,99.90
2018-08-13T04:07:11.900Z,99.90
2018-08-13T04:09:43.333Z,99.90
2018-08-13T04:12:12.614Z,99.90
2018-08-13T04:14:41.388Z,99.90
2018-08-13T04:17:10.221Z,99.90
2018-08-13T04:19:38.777Z,99.90
2018-08-13T04:22:07.554Z,99.90
2018-08-13T04:24:36.412Z,99.90
2018-08-13T04:27:05.039Z,99.90
2018-08-13T04:29:33.719Z,99.90
2018-08-13T04:32:02.598Z,99.90
2018-08-13T04:34:31.344Z,99.90
2018-08-13T04:37:00.081Z,99.90
2018-08-13T04:39:31.021Z,99.90
2018-08-13T04:41:59.662Z,99.90
2018-08-13T04:44:28.300Z,99.90
2018-08-13T04:46:56.986Z,99.90
2018-08-13T04:49:25.546Z,99.90
2018-08-13T04:51:54.345Z,99.90
2018-08-13T04:54:23.141Z,99.90
2018-08-13T04:56:52.421Z,99.90
2018-08-13T04:59:21.309Z,99.90
2018-08-13T05:01:49.980Z,99.90
2018-08-13T05:04:18.917Z,99.90
2018-08-13T05:06:48.024Z,99.90
2018-08-13T05:09:16.699Z,99.90
2018-08-13T05:11:45.619Z,99.90
2018-08-13T05:14:14.371Z,99.90
2018-08-13T05:16:44.180Z,99.90
2018-08-13T05:19:13.833Z,99.90
2018-08-13T05:21:42.664Z,99.90
2018-08-13T05:24:11.361Z,99.90
2018-08-13T05:26:40.987Z,99.90
2018-08-13T05:29:09.545Z,99.90
2018-08-13T05:31:38.325Z,99.90
2018-08-13T05:34:07.155Z,99.90
2018-08-13T05:36:35.944Z,99.90
2018-08-13T05:39:08.392Z,99.90
2018-08-13T05:41:37.606Z,99.90
2018-08-13T05:44:06.614Z,99.90
2018-08-13T05:46:35.400Z,99.90
2018-08-13T05:49:04.284Z,99.90
2018-08-13T05:51:33.203Z,99.90
2018-08-13T05:54:01.935Z,99.80
2018-08-13T05:56:31.106Z,99.90
2018-08-13T05:59:00.119Z,99.90
2018-08-13T06:01:29.265Z,99.60
2018-08-13T06:03:58.152Z,99.90
2018-08-13T06:06:26.927Z,99.90
2018-08-13T06:08:56.012Z,99.90
2018-08-13T06:11:25.123Z,99.90
2018-08-13T06:13:53.864Z,98.50
2018-08-13T06:16:22.868Z,97.30
2018-08-13T06:18:51.893Z,97.70
2018-08-13T06:21:20.999Z,97.00
2018-08-13T06:23:49.969Z,96.90
2018-08-13T06:26:19.040Z,97.00
2018-08-13T06:28:48.125Z,97.20
2018-08-13T06:31:16.952Z,96.90
2018-08-13T06:33:45.746Z,96.30
2018-08-13T06:36:14.908Z,96.00
2018-08-13T06:38:43.725Z,96.20
2018-08-13T06:41:12.485Z,96.30
2018-08-13T06:43:41.288Z,95.70
2018-08-13T06:46:10.104Z,96.00
2018-08-13T06:48:40.338Z,94.90
2018-08-13T06:51:10.169Z,94.60
2018-08-13T06:53:41.135Z,95.10
2018-08-13T06:56:10.994Z,95.40
2018-08-13T06:58:40.396Z,95.10
2018-08-13T07:01:10.172Z,97.20
2018-08-13T07:03:41.324Z,94.80
2018-08-13T07:06:13.554Z,96.90
2018-08-13T07:08:44.488Z,95.60
2018-08-13T07:11:15.889Z,97.30
2018-08-13T07:13:47.394Z,97.70
2018-08-13T07:16:16.463Z,95.70
2018-08-13T07:18:45.450Z,96.60
2018-08-13T07:21:14.658Z,97.10
2018-08-13T07:23:44.239Z,98.40
2018-08-13T07:26:13.395Z,99.30
2018-08-13T07:28:42.299Z,99.90
2018-08-13T07:31:11.725Z,99.90
2018-08-13T07:33:40.509Z,99.90
2018-08-13T07:36:09.580Z,99.90
2018-08-13T07:38:38.652Z,99.90
2018-08-13T07:41:08.202Z,99.90
2018-08-13T07:43:37.644Z,99.90
2018-08-13T07:46:07.112Z,99.90
2018-08-13T07:48:36.624Z,99.90
2018-08-13T07:51:05.971Z,99.90
2018-08-13T07:53:35.804Z,99.90
2018-08-13T07:56:05.318Z,99.90
2018-08-13T07:58:37.793Z,99.90
2018-08-13T08:01:06.895Z,99.90
2018-08-13T08:03:36.452Z,99.90
2018-08-13T08:06:06.391Z,99.90
2018-08-13T08:08:38.484Z,99.90
2018-08-13T08:11:07.400Z,99.90
2018-08-13T08:13:36.927Z,99.90
2018-08-13T08:16:06.266Z,99.90
2018-08-13T08:18:35.089Z,99.90
2018-08-13T08:21:04.109Z,99.90
2018-08-13T08:23:33.926Z,99.90
2018-08-13T08:26:02.693Z,99.90
2018-08-13T08:28:31.636Z,99.90
2018-08-13T08:31:01.648Z,99.90
2018-08-13T08:33:30.822Z,99.90
2018-08-13T08:36:01.444Z,99.90
2018-08-13T08:38:30.732Z,99.90
2018-08-13T08:41:00.541Z,99.90
2018-08-13T08:43:35.918Z,99.90
2018-08-13T08:46:07.177Z,99.90
2018-08-13T08:48:36.737Z,99.90
2018-08-13T08:51:07.091Z,99.90
2018-08-13T08:53:37.065Z,99.90
2018-08-13T08:56:06.687Z,99.90
2018-08-13T08:58:37.015Z,99.90
2018-08-13T09:01:05.891Z,99.90
2018-08-13T09:03:34.704Z,99.90
2018-08-13T09:06:04.034Z,99.90
2018-08-13T09:08:33.235Z,99.90
2018-08-13T09:11:02.372Z,99.90
2018-08-13T09:13:31.448Z,99.90
2018-08-13T09:16:00.277Z,99.90
2018-08-13T09:18:40.328Z,99.90
2018-08-13T09:21:20.286Z,99.90
2018-08-13T09:24:00.433Z,99.90
2018-08-13T09:26:40.108Z,99.90
2018-08-13T09:29:20.231Z,99.90
2018-08-13T09:32:33.301Z,99.90
2018-08-13T09:35:35.237Z,99.90
2018-08-13T09:38:04.930Z,99.90
2018-08-13T09:40:34.325Z,99.90
2018-08-13T09:43:04.456Z,99.90
2018-08-13T09:45:34.683Z,99.90
2018-08-13T09:48:03.829Z,99.90
2018-08-13T09:50:33.287Z,99.90
2018-08-13T09:53:02.540Z,99.90
2018-08-13T09:55:31.657Z,99.90
2018-08-13T09:58:01.155Z,99.90
2018-08-13T10:00:35.723Z,99.90
2018-08-13T10:03:05.818Z,99.90
2018-08-13T10:05:35.451Z,99.90
2018-08-13T10:08:05.672Z,99.90
2018-08-13T10:10:34.600Z,99.90
2018-08-13T10:13:04.460Z,99.90
2018-08-13T10:15:33.955Z,99.90
2018-08-13T10:18:02.788Z,99.90
2018-08-13T10:20:31.628Z,99.90
2018-08-13T10:23:00.358Z,99.90
2018-08-13T10:25:29.267Z,99.90
2018-08-13T10:27:58.339Z,99.90
2018-08-13T10:30:27.236Z,99.90
2018-08-13T10:32:56.439Z,99.90
2018-08-13T10:35:25.788Z,99.90
2018-08-13T10:37:54.661Z,99.90
2018-08-13T10:40:23.718Z,99.90
2018-08-13T10:42:53.038Z,99.90
2018-08-13T10:45:22.358Z,99.90
2018-08-13T10:47:51.489Z,99.90
2018-08-13T10:50:20.356Z,99.90
2018-08-13T10:52:49.661Z,99.90
2018-08-13T10:55:19.084Z,99.90
2018-08-13T10:57:49.034Z,99.90
2018-08-13T11:00:18.937Z,99.90
2018-08-13T11:05:39.414Z,99.90
2018-08-13T11:43:18.033Z,99.90
2018-08-13T11:45:46.935Z,99.90
2018-08-13T11:48:16.277Z,99.90
2018-08-13T11:50:45.331Z,99.90
2018-08-13T11:53:14.373Z,99.90
2018-08-13T11:55:43.148Z,99.90
2018-08-13T11:58:12.058Z,99.90
2018-08-13T12:00:40.785Z,99.90
2018-08-13T12:03:09.828Z,99.90
2018-08-13T12:05:38.620Z,99.90
2018-08-13T12:08:07.477Z,99.90
2018-08-13T12:10:37.541Z,99.90
2018-08-13T12:13:07.288Z,99.90
2018-08-13T12:15:36.235Z,99.90
2018-08-13T12:18:05.872Z,99.90
2018-08-13T12:20:34.846Z,99.90
2018-08-13T12:23:04.261Z,99.90
2018-08-13T12:25:33.266Z,99.90
2018-08-13T12:28:02.631Z,99.90
2018-08-13T12:30:31.604Z,99.90
2018-08-13T12:33:01.341Z,99.90
2018-08-13T12:35:31.771Z,99.90
2018-08-13T12:38:00.872Z,99.90
2018-08-13T12:40:30.026Z,99.90
2018-08-13T12:42:59.266Z,99.90
2018-08-13T12:45:28.614Z,99.90
2018-08-13T12:47:57.723Z,99.90
2018-08-13T12:50:26.812Z,99.90
2018-08-13T12:52:55.983Z,99.90
2018-08-13T12:55:25.460Z,99.90
2018-08-13T12:57:54.342Z,99.90
2018-08-13T13:00:23.294Z,99.90
2018-08-13T13:02:52.516Z,99.90
2018-08-13T13:05:21.982Z,99.90
2018-08-13T13:07:51.409Z,99.90
2018-08-13T13:10:20.455Z,99.90
2018-08-13T13:12:49.548Z,99.90
2018-08-13T13:15:20.267Z,99.90
2018-08-13T13:17:49.160Z,99.90
2018-08-13T13:20:21.987Z,99.90
2018-08-13T13:22:51.597Z,99.90
2018-08-13T13:25:20.827Z,99.90
2018-08-13T13:27:49.837Z,99.90
2018-08-13T13:30:18.839Z,99.90
2018-08-13T13:32:47.750Z,99.90
2018-08-13T13:35:19.553Z,99.90
2018-08-13T13:37:48.527Z,99.90
2018-08-13T13:40:18.341Z,99.90
2018-08-13T13:42:49.844Z,99.90
2018-08-13T13:45:18.765Z,99.90
2018-08-13T13:47:48.212Z,99.90
2018-08-13T13:50:18.718Z,99.90
2018-08-13T13:52:48.223Z,99.90
2018-08-13T13:55:17.669Z,99.90
2018-08-13T13:57:46.756Z,99.90
2018-08-13T14:00:17.947Z,99.90
2018-08-13T14:02:48.046Z,99.90
2018-08-13T14:05:17.868Z,99.90
2018-08-13T14:07:47.010Z,99.90
2018-08-13T14:10:18.510Z,99.90
2018-08-13T14:12:47.605Z,99.90
2018-08-13T14:15:17.902Z,99.90
2018-08-13T14:17:47.415Z,99.90
2018-08-13T14:20:17.145Z,99.90
2018-08-13T14:22:46.003Z,99.90
2018-08-13T14:25:15.552Z,99.90
2018-08-13T14:27:44.547Z,99.90
2018-08-13T14:30:20.022Z,99.90
2018-08-13T14:32:49.283Z,99.90
2018-08-13T14:35:19.264Z,99.90
2018-08-13T14:37:48.812Z,99.90
2018-08-13T14:40:17.766Z,99.90
2018-08-13T14:42:46.814Z,99.90
2018-08-13T14:45:16.743Z,99.90
2018-08-13T14:47:48.123Z,99.90
2018-08-13T14:50:18.686Z,99.90
2018-08-13T14:52:48.706Z,99.90
2018-08-13T14:55:19.272Z,99.90
2018-08-13T14:57:48.052Z,99.90
2018-08-13T15:00:25.868Z,99.90
2018-08-13T15:02:56.437Z,99.90
2018-08-13T15:05:25.462Z,99.90
2018-08-13T15:07:54.517Z,99.90
2018-08-13T15:10:25.047Z,99.90
2018-08-13T15:12:54.158Z,99.90
2018-08-13T15:15:23.105Z,99.90
2018-08-13T15:17:52.226Z,99.90
2018-08-13T15:20:26.371Z,99.90
2018-08-13T15:22:55.808Z,99.90
2018-08-13T15:25:25.229Z,99.90
2018-08-13T15:27:54.419Z,99.90
2018-08-13T15:30:24.243Z,99.90
2018-08-13T15:32:53.961Z,99.90
2018-08-13T15:35:23.919Z,99.90
2018-08-13T15:37:53.017Z,99.90
2018-08-13T15:40:21.855Z,99.90
2018-08-13T15:42:50.998Z,99.90
2018-08-13T15:45:21.480Z,99.90
2018-08-13T15:47:50.599Z,99.90
2018-08-13T15:50:20.947Z,99.90
2018-08-13T15:52:50.746Z,99.90
2018-08-13T15:55:21.256Z,99.90
2018-08-13T15:57:50.765Z,99.90
2018-08-13T16:00:24.699Z,99.90
2018-08-13T16:02:54.236Z,99.90
2018-08-13T16:05:25.083Z,99.90
2018-08-13T16:07:55.527Z,99.90
2018-08-13T16:10:25.632Z,99.90
2018-08-13T16:12:56.116Z,99.90
2018-08-13T16:15:25.476Z,99.90
2018-08-13T16:17:57.167Z,99.90
2018-08-13T16:20:26.355Z,99.90
2018-08-13T16:22:55.782Z,99.90
2018-08-13T16:25:28.446Z,99.90
2018-08-13T16:27:57.456Z,99.90
2018-08-13T16:30:28.025Z,99.90
2018-08-13T16:32:56.991Z,99.90
2018-08-13T16:35:28.781Z,99.90
2018-08-13T16:37:57.632Z,99.90
2018-08-13T16:40:26.761Z,99.90
2018-08-13T16:42:56.952Z,99.90
2018-08-13T16:45:25.909Z,99.90
2018-08-13T16:48:22.612Z,99.90
2018-08-13T16:52:21.256Z,99.90
2018-08-13T16:54:50.474Z,99.90
2018-08-13T16:57:19.641Z,99.90
2018-08-13T16:59:48.892Z,99.90
2018-08-13T17:02:18.821Z,99.90
2018-08-13T17:04:48.168Z,99.90
2018-08-13T17:07:17.215Z,97.80
2018-08-13T17:09:46.997Z,99.30
2018-08-13T17:12:16.141Z,97.40
2018-08-13T17:14:46.517Z,97.00
2018-08-13T17:17:16.290Z,96.90
2018-08-13T17:19:45.736Z,99.00
2018-08-13T17:22:14.789Z,99.90
2018-08-13T17:24:46.129Z,99.90
2018-08-13T17:27:15.311Z,99.90
2018-08-13T17:29:44.196Z,99.90
2018-08-13T17:32:13.146Z,99.90
2018-08-13T17:34:42.134Z,99.90
2018-08-13T17:37:11.033Z,99.90
2018-08-13T17:39:39.980Z,99.90
2018-08-13T17:42:08.904Z,99.90
2018-08-13T17:44:39.425Z,99.90
2018-08-13T17:47:08.471Z,99.90
2018-08-13T17:49:37.609Z,99.90
2018-08-13T17:52:06.598Z,99.90
2018-08-13T17:54:35.540Z,99.90
2018-08-13T17:57:04.568Z,99.90
2018-08-13T17:59:33.555Z,99.90
2018-08-13T18:02:02.339Z,99.90
2018-08-13T18:04:31.124Z,99.90
2018-08-13T18:07:00.065Z,99.90
2018-08-13T18:09:29.662Z,99.90
2018-08-13T18:11:58.717Z,99.90
2018-08-13T18:14:27.773Z,99.90
2018-08-13T18:16:56.666Z,99.90
2018-08-13T18:19:25.631Z,99.90
2018-08-13T18:21:56.029Z,99.90
2018-08-13T18:24:25.069Z,99.90
2018-08-13T18:26:54.579Z,99.90
2018-08-13T18:29:23.500Z,99.90
2018-08-13T18:31:52.479Z,99.90
2018-08-13T18:34:21.689Z,99.90
2018-08-13T18:36:50.514Z,99.90
2018-08-13T18:39:19.459Z,99.90
2018-08-13T18:41:48.435Z,99.90
2018-08-13T18:44:17.450Z,99.90
2018-08-13T18:46:46.658Z,99.90
2018-08-13T18:49:15.509Z,99.90
2018-08-13T18:51:46.649Z,99.90
2018-08-13T18:54:18.422Z,99.90
2018-08-13T18:56:47.310Z,99.90
2018-08-13T18:59:16.504Z,99.90
2018-08-13T19:01:45.724Z,99.90
2018-08-13T19:04:15.726Z,99.90
2018-08-13T19:06:45.185Z,99.90
2018-08-13T19:09:14.393Z,99.90
2018-08-13T19:11:44.501Z,99.90
2018-08-13T19:14:13.778Z,99.90
2018-08-13T19:16:45.010Z,99.90
2018-08-13T19:19:14.315Z,99.90
2018-08-13T19:21:44.886Z,99.90
2018-08-13T19:24:13.926Z,99.90
2018-08-13T19:26:43.492Z,99.90
2018-08-13T19:29:13.243Z,99.90
2018-08-13T19:31:42.832Z,99.90
2018-08-13T19:34:16.646Z,99.90
2018-08-13T19:36:46.522Z,99.90
2018-08-13T19:39:16.371Z,99.90
2018-08-13T19:41:48.084Z,99.90
2018-08-13T19:44:17.687Z,99.90
2018-08-13T19:46:56.287Z,99.90
2018-08-13T19:49:32.069Z,99.90
2018-08-13T19:52:01.223Z,99.90
2018-08-13T19:54:30.752Z,99.90
2018-08-13T19:57:01.083Z,99.90
2018-08-13T19:59:35.464Z,99.90
2018-08-13T20:02:04.988Z,99.90
2018-08-13T20:04:41.968Z,99.90
2018-08-13T20:07:11.715Z,99.90
2018-08-13T20:09:49.474Z,99.90
2018-08-13T20:12:19.082Z,99.90
2018-08-13T20:14:48.578Z,99.90
2018-08-13T20:17:18.111Z,99.90
2018-08-13T20:19:47.398Z,99.90
2018-08-13T20:22:16.700Z,99.90
2018-08-13T20:24:45.873Z,99.90
2018-08-13T20:27:15.183Z,99.90
2018-08-13T20:29:44.190Z,99.90
2018-08-13T20:32:13.562Z,99.90
2018-08-13T20:34:42.795Z,99.90
2018-08-13T20:37:19.686Z,99.90
2018-08-13T20:39:51.994Z,99.90
2018-08-13T20:42:24.757Z,99.90
2018-08-13T20:45:10.108Z,99.90
2018-08-13T20:47:48.756Z,99.90
2018-08-13T20:51:25.270Z,99.90
2018-08-13T20:53:57.379Z,99.90
2018-08-13T20:56:28.388Z,99.90
2018-08-13T20:59:03.425Z,99.90
2018-08-13T21:01:34.632Z,99.90
2018-08-13T21:04:07.198Z,99.90
2018-08-13T21:06:36.569Z,99.90
2018-08-13T21:09:09.235Z,99.90
2018-08-13T21:11:42.045Z,99.90
2018-08-13T21:14:12.040Z,99.90
2018-08-13T21:16:43.856Z,99.90
2018-08-13T21:19:15.342Z,99.90
2018-08-13T21:21:44.730Z,99.90
2018-08-13T21:24:13.759Z,99.90
2018-08-13T21:26:44.024Z,99.90
2018-08-13T21:29:16.426Z,99.90
2018-08-13T21:31:45.479Z,99.90
2018-08-13T21:34:20.161Z,99.90
2018-08-13T21:36:53.398Z,99.90
2018-08-13T21:39:23.366Z,99.90
2018-08-13T21:41:55.310Z,99.90
2018-08-13T21:44:45.278Z,99.90
2018-08-13T21:47:14.415Z,99.90
2018-08-13T21:49:47.817Z,99.90
2018-08-13T21:54:56.088Z,99.90
2018-08-13T21:57:39.742Z,99.90
2018-08-13T22:00:58.669Z,99.90
2018-08-13T22:03:35.558Z,99.90
2018-08-13T22:06:05.357Z,99.90
2018-08-13T22:08:36.880Z,99.90
2018-08-13T22:11:06.102Z,99.90
2018-08-13T22:13:35.406Z,99.90
2018-08-13T22:16:05.073Z,99.90
2018-08-13T22:18:34.715Z,99.90
2018-08-13T22:21:05.647Z,99.90
2018-08-13T22:23:35.028Z,99.90
2018-08-13T22:26:13.694Z,99.90
2018-08-13T22:28:48.491Z,99.90
2018-08-13T22:31:27.916Z,99.90
2018-08-13T22:34:04.635Z,99.90
2018-08-13T22:36:33.919Z,99.90
2018-08-13T22:39:03.514Z,99.90
2018-08-13T22:41:34.047Z,99.90
2018-08-13T22:44:05.205Z,99.90
2018-08-13T22:46:42.826Z,99.90
2018-08-13T22:49:16.323Z,99.90
2018-08-13T22:51:46.149Z,99.90
2018-08-13T22:54:21.780Z,99.90
2018-08-13T22:56:51.401Z,99.90
2018-08-13T22:59:21.129Z,99.90
2018-08-13T23:01:52.966Z,99.90
2018-08-13T23:04:21.770Z,99.90
2018-08-13T23:06:51.023Z,99.90
2018-08-13T23:09:20.076Z,99.90
2018-08-13T23:11:49.438Z,99.90
2018-08-13T23:14:18.629Z,99.90
2018-08-13T23:16:47.648Z,99.90
2018-08-13T23:19:16.894Z,99.90
2018-08-13T23:21:45.977Z,99.90
2018-08-13T23:24:14.934Z,99.90
2018-08-13T23:26:43.979Z,99.90
2018-08-13T23:29:13.081Z,99.90
2018-08-13T23:31:44.002Z,99.90
2018-08-13T23:34:13.263Z,99.90
2018-08-13T23:36:42.312Z,99.90
2018-08-13T23:39:13.560Z,99.90
2018-08-13T23:41:43.302Z,99.90
2018-08-13T23:44:12.639Z,99.90
2018-08-13T23:46:41.905Z,99.90
2018-08-13T23:49:11.065Z,99.90
2018-08-13T23:51:39.944Z,99.90
2018-08-13T23:54:09.757Z,99.90
2018-08-13T23:56:38.828Z,99.90
2018-08-13T23:59:08.000Z,99.90
